createdAt,value
2019-03-27T00:02:12.282Z,5.68
2019-03-27T00:04:41.977Z,5.81
2019-03-27T00:07:11.042Z,5.81
2019-03-27T00:09:39.958Z,5.84
2019-03-27T00:12:08.947Z,5.93
2019-03-27T00:14:38.278Z,5.89
2019-03-27T00:17:07.757Z,5.72
2019-03-27T00:19:37.612Z,5.78
2019-03-27T00:22:06.649Z,5.88
2019-03-27T00:24:35.680Z,5.85
2019-03-27T00:27:44.417Z,5.89
2019-03-27T00:30:13.889Z,5.78
2019-03-27T00:32:42.836Z,5.77
2019-03-27T00:35:11.903Z,5.79
2019-03-27T00:37:41.881Z,5.61
2019-03-27T00:40:11.330Z,5.58
2019-03-27T00:42:40.887Z,5.62
2019-03-27T00:45:11.012Z,5.61
2019-03-27T00:47:41.153Z,5.65
2019-03-27T00:50:10.702Z,5.65
2019-03-27T00:52:40.067Z,5.62
2019-03-27T00:55:10.250Z,5.61
2019-03-27T00:57:40.068Z,5.61
2019-03-27T01:00:26.040Z,5.56
2019-03-27T01:02:55.482Z,5.55
2019-03-27T01:05:24.391Z,5.51
2019-03-27T01:07:53.449Z,5.57
2019-03-27T01:10:22.352Z,5.48
2019-03-27T01:12:51.254Z,5.46
2019-03-27T01:15:20.238Z,5.49
2019-03-27T01:17:49.250Z,5.45
2019-03-27T01:20:18.208Z,5.42
2019-03-27T01:22:47.172Z,5.49
2019-03-27T01:25:16.102Z,5.40
2019-03-27T01:27:45.128Z,5.43
2019-03-27T01:30:14.770Z,5.42
2019-03-27T01:32:43.692Z,5.53
2019-03-27T01:35:12.905Z,5.58
2019-03-27T01:37:41.984Z,5.50
2019-03-27T01:40:11.078Z,5.55
2019-03-27T01:42:40.027Z,5.59
2019-03-27T01:45:09.561Z,5.60
2019-03-27T01:47:38.677Z,5.46
2019-03-27T01:50:08.773Z,5.58
2019-03-27T01:52:37.801Z,5.49
2019-03-27T01:55:06.872Z,5.56
2019-03-27T01:57:35.807Z,5.49
2019-03-27T02:00:06.321Z,5.48
2019-03-27T02:02:35.245Z,5.57
2019-03-27T02:05:04.434Z,5.54
2019-03-27T02:07:33.341Z,5.43
2019-03-27T02:10:02.244Z,5.50
2019-03-27T02:12:31.251Z,5.61
2019-03-27T02:15:00.716Z,5.50
2019-03-27T02:17:30.027Z,5.48
2019-03-27T02:19:59.067Z,5.63
2019-03-27T02:22:27.945Z,5.61
2019-03-27T02:24:56.956Z,5.58
2019-03-27T02:27:26.119Z,5.64
2019-03-27T02:29:55.070Z,5.64
2019-03-27T02:32:23.948Z,5.66
2019-03-27T02:34:52.888Z,5.52
2019-03-27T02:37:21.933Z,5.63
2019-03-27T02:39:51.207Z,5.53
2019-03-27T02:42:20.448Z,5.61
2019-03-27T02:44:49.491Z,5.64
2019-03-27T02:47:18.497Z,5.56
2019-03-27T02:49:47.613Z,5.55
2019-03-27T02:52:16.497Z,5.68
2019-03-27T02:54:45.423Z,5.62
2019-03-27T02:57:14.554Z,5.71
2019-03-27T02:59:43.517Z,5.67
2019-03-27T03:02:12.587Z,5.77
2019-03-27T03:04:42.018Z,5.76
2019-03-27T03:07:10.906Z,5.66
2019-03-27T03:09:39.838Z,5.56
2019-03-27T03:12:08.747Z,5.62
2019-03-27T03:14:39.523Z,5.71
2019-03-27T03:17:08.574Z,5.83
2019-03-27T03:19:37.579Z,5.73
2019-03-27T03:22:06.727Z,5.74
2019-03-27T03:24:35.640Z,5.72
2019-03-27T03:27:04.648Z,5.76
2019-03-27T03:29:33.547Z,5.68
2019-03-27T03:32:02.599Z,5.83
2019-03-27T03:34:31.593Z,5.75
2019-03-27T03:37:00.522Z,5.76
2019-03-27T03:39:29.650Z,5.75
2019-03-27T03:41:58.638Z,5.74
2019-03-27T03:44:27.621Z,5.76
2019-03-27T03:46:59.892Z,5.76
2019-03-27T03:49:27.819Z,5.80
2019-03-27T03:51:57.614Z,5.85
2019-03-27T03:54:27.147Z,5.81
2019-03-27T03:56:58.469Z,5.72
2019-03-27T03:59:29.295Z,5.72
2019-03-27T04:02:02.816Z,5.78
2019-03-27T04:04:35.104Z,5.75
2019-03-27T04:07:05.003Z,5.76
2019-03-27T04:09:33.952Z,5.74
2019-03-27T04:12:02.912Z,5.68
2019-03-27T04:14:31.990Z,5.55
2019-03-27T04:17:16.172Z,5.65
2019-03-27T04:19:31.755Z,5.64
2019-03-27T04:22:00.698Z,5.69
2019-03-27T04:24:30.256Z,5.61
2019-03-27T04:26:59.192Z,5.64
2019-03-27T04:29:28.140Z,5.71
2019-03-27T04:31:57.728Z,5.68
2019-03-27T04:34:26.647Z,5.66
2019-03-27T04:36:55.713Z,5.61
2019-03-27T04:39:24.702Z,5.71
2019-03-27T04:41:53.632Z,5.74
2019-03-27T04:44:22.577Z,5.67
2019-03-27T04:46:51.663Z,5.62
2019-03-27T04:49:21.634Z,5.65
2019-03-27T04:51:50.673Z,5.70
2019-03-27T04:54:19.687Z,5.67
2019-03-27T04:56:48.713Z,5.65
2019-03-27T04:59:17.659Z,5.59
2019-03-27T05:01:46.636Z,5.66
2019-03-27T05:04:15.754Z,5.72
2019-03-27T05:06:44.641Z,5.73
2019-03-27T05:09:13.711Z,5.60
2019-03-27T05:11:43.077Z,5.69
2019-03-27T05:14:12.064Z,5.68
2019-03-27T05:16:41.021Z,5.76
2019-03-27T05:19:09.978Z,5.73
2019-03-27T05:21:39.006Z,5.66
2019-03-27T05:24:07.963Z,5.75
2019-03-27T05:26:37.021Z,5.77
2019-03-27T05:29:06.046Z,5.78
2019-03-27T05:31:35.017Z,5.87
2019-03-27T05:34:04.249Z,5.87
2019-03-27T05:36:33.310Z,5.89
2019-03-27T05:39:03.901Z,5.94
2019-03-27T05:41:32.843Z,5.93
2019-03-27T05:44:01.800Z,5.91
2019-03-27T05:46:30.838Z,6.03
2019-03-27T05:48:59.781Z,6.03
2019-03-27T05:51:29.565Z,6.00
2019-03-27T05:53:58.607Z,6.05
2019-03-27T05:56:28.038Z,6.08
2019-03-27T05:58:57.594Z,6.06
2019-03-27T06:01:26.501Z,6.13
2019-03-27T06:03:55.591Z,6.15
2019-03-27T06:06:24.592Z,6.12
2019-03-27T06:08:53.636Z,6.11
2019-03-27T06:11:22.686Z,6.17
2019-03-27T06:13:52.065Z,6.19
2019-03-27T06:16:21.168Z,6.17
2019-03-27T06:18:50.101Z,6.34
2019-03-27T06:21:19.044Z,6.27
2019-03-27T06:23:48.033Z,6.29
2019-03-27T06:26:17.094Z,6.38
2019-03-27T06:28:46.062Z,6.48
2019-03-27T06:31:15.039Z,6.47
2019-03-27T06:33:44.038Z,6.57
2019-03-27T06:36:13.034Z,6.46
2019-03-27T06:38:41.987Z,6.53
2019-03-27T06:41:10.931Z,6.64
2019-03-27T06:43:40.183Z,6.60
2019-03-27T06:46:09.194Z,6.64
2019-03-27T06:48:38.136Z,6.71
2019-03-27T06:51:07.073Z,6.76
2019-03-27T06:53:36.195Z,6.83
2019-03-27T06:56:05.203Z,6.88
2019-03-27T06:58:34.286Z,6.87
2019-03-27T07:01:03.164Z,6.96
2019-03-27T07:03:32.608Z,7.00
2019-03-27T07:06:01.881Z,7.11
2019-03-27T07:08:30.794Z,7.15
2019-03-27T07:11:00.151Z,7.18
2019-03-27T07:13:29.061Z,7.17
2019-03-27T07:15:58.481Z,7.28
2019-03-27T07:18:39.446Z,7.23
2019-03-27T07:20:58.360Z,7.35
2019-03-27T07:23:27.271Z,7.23
2019-03-27T07:25:56.196Z,7.46
2019-03-27T07:28:25.125Z,7.48
2019-03-27T07:30:55.774Z,7.38
2019-03-27T07:33:25.419Z,7.36
2019-03-27T07:35:54.320Z,7.37
2019-03-27T07:38:23.393Z,7.45
2019-03-27T07:40:52.339Z,7.58
2019-03-27T07:43:21.283Z,7.54
2019-03-27T07:45:50.403Z,7.58
2019-03-27T07:48:19.411Z,7.72
2019-03-27T07:50:48.478Z,7.85
2019-03-27T07:53:22.218Z,7.91
2019-03-27T07:55:50.522Z,8.00
2019-03-27T07:58:19.775Z,8.00
2019-03-27T08:00:48.836Z,8.14
2019-03-27T08:03:18.247Z,8.04
2019-03-27T08:05:47.259Z,8.41
2019-03-27T08:08:16.377Z,8.50
2019-03-27T08:10:45.536Z,8.51
2019-03-27T08:13:14.490Z,8.53
2019-03-27T08:15:43.429Z,8.85
2019-03-27T08:18:12.504Z,8.78
2019-03-27T08:20:41.573Z,9.03
2019-03-27T08:23:10.927Z,9.07
2019-03-27T08:25:39.966Z,9.04
2019-03-27T08:28:09.318Z,9.26
2019-03-27T08:30:38.651Z,9.67
2019-03-27T08:33:07.876Z,9.67
2019-03-27T08:35:36.733Z,9.84
2019-03-27T08:38:05.810Z,9.75
2019-03-27T08:40:34.681Z,9.91
2019-03-27T08:43:04.801Z,9.59
2019-03-27T08:45:33.783Z,9.73
2019-03-27T08:48:02.731Z,9.71
2019-03-27T08:50:31.777Z,9.64
2019-03-27T08:53:00.925Z,9.72
2019-03-27T08:55:31.176Z,10.06
2019-03-27T08:58:01.731Z,10.18
2019-03-27T09:00:48.468Z,10.28
2019-03-27T09:03:17.900Z,10.07
2019-03-27T09:05:47.212Z,10.23
2019-03-27T09:08:16.287Z,10.23
2019-03-27T09:10:45.543Z,10.38
2019-03-27T09:13:14.836Z,10.48
2019-03-27T09:15:45.523Z,10.59
2019-03-27T09:18:16.912Z,10.29
2019-03-27T09:20:45.725Z,10.12
2019-03-27T09:23:14.961Z,10.23
2019-03-27T09:25:43.897Z,10.22
2019-03-27T09:28:12.865Z,10.26
2019-03-27T09:30:41.881Z,10.48
2019-03-27T09:33:10.882Z,10.47
2019-03-27T09:35:39.796Z,10.58
2019-03-27T09:38:08.846Z,10.43
2019-03-27T09:40:37.745Z,10.31
2019-03-27T09:43:06.959Z,10.42
2019-03-27T09:45:36.259Z,10.53
2019-03-27T09:48:05.302Z,10.45
2019-03-27T09:50:34.317Z,10.52
2019-03-27T09:53:03.342Z,10.54
2019-03-27T09:55:32.259Z,10.50
2019-03-27T09:58:01.305Z,10.63
2019-03-27T10:01:08.342Z,10.63
2019-03-27T10:03:37.280Z,10.89
2019-03-27T10:06:06.831Z,10.77
2019-03-27T10:08:35.967Z,10.60
2019-03-27T10:11:04.899Z,10.52
2019-03-27T10:13:33.875Z,10.74
2019-03-27T10:16:02.817Z,10.63
2019-03-27T10:18:31.720Z,10.73
2019-03-27T10:21:00.817Z,10.97
2019-03-27T10:23:29.665Z,10.89
2019-03-27T10:25:58.645Z,10.82
2019-03-27T10:28:27.545Z,10.96
2019-03-27T10:30:56.495Z,10.83
2019-03-27T10:33:25.539Z,10.93
2019-03-27T10:35:54.790Z,10.93
2019-03-27T10:38:23.666Z,11.14
2019-03-27T10:40:52.635Z,11.27
2019-03-27T10:43:21.508Z,11.31
2019-03-27T10:45:50.982Z,11.21
2019-03-27T10:48:19.906Z,11.41
2019-03-27T10:50:48.909Z,11.66
2019-03-27T10:53:17.841Z,11.80
2019-03-27T10:55:46.721Z,11.54
2019-03-27T10:58:16.112Z,11.56
2019-03-27T11:00:45.045Z,11.83
2019-03-27T11:03:14.008Z,11.78
2019-03-27T11:05:42.931Z,11.65
2019-03-27T11:08:11.948Z,11.39
2019-03-27T11:10:40.965Z,11.25
2019-03-27T11:13:10.077Z,11.18
2019-03-27T11:15:39.253Z,11.49
2019-03-27T11:18:08.168Z,11.46
2019-03-27T11:20:37.134Z,10.99
2019-03-27T11:23:06.088Z,11.18
2019-03-27T11:25:35.167Z,11.29
2019-03-27T11:28:04.095Z,11.04
2019-03-27T11:30:41.574Z,11.10
2019-03-27T11:33:11.776Z,11.10
2019-03-27T11:35:40.933Z,11.36
2019-03-27T11:38:09.932Z,11.41
2019-03-27T11:40:38.789Z,11.75
2019-03-27T11:43:07.851Z,11.75
2019-03-27T11:45:36.815Z,11.58
2019-03-27T11:48:08.170Z,11.84
2019-03-27T11:50:44.791Z,12.18
2019-03-27T11:53:08.271Z,12.32
2019-03-27T11:55:37.347Z,12.29
2019-03-27T11:58:06.684Z,12.35
2019-03-27T12:00:35.590Z,12.08
2019-03-27T12:03:04.996Z,12.03
2019-03-27T12:05:34.789Z,11.93
2019-03-27T12:08:03.799Z,11.99
2019-03-27T12:10:32.820Z,11.82
2019-03-27T12:13:01.764Z,11.80
2019-03-27T12:15:55.962Z,11.86
2019-03-27T12:18:25.299Z,12.06
2019-03-27T12:20:59.325Z,11.96
2019-03-27T12:23:25.151Z,12.02
2019-03-27T12:25:55.350Z,12.12
2019-03-27T12:28:24.503Z,12.36
2019-03-27T12:30:53.612Z,12.04
2019-03-27T12:33:22.632Z,12.09
2019-03-27T12:35:51.593Z,11.89
2019-03-27T12:38:20.464Z,11.82
2019-03-27T12:40:49.700Z,11.52
2019-03-27T12:43:18.597Z,11.38
2019-03-27T12:45:47.506Z,11.49
2019-03-27T12:48:17.257Z,11.30
2019-03-27T12:50:46.293Z,11.16
2019-03-27T12:53:15.593Z,11.08
2019-03-27T12:55:44.514Z,11.07
2019-03-27T12:58:13.433Z,11.14
2019-03-27T13:00:42.492Z,10.98
2019-03-27T13:03:11.526Z,10.85
2019-03-27T13:05:40.668Z,10.85
2019-03-27T13:08:09.594Z,10.91
2019-03-27T13:10:38.698Z,10.90
2019-03-27T13:13:07.631Z,10.97
2019-03-27T13:15:36.990Z,10.79
2019-03-27T13:18:05.989Z,10.84
2019-03-27T13:20:35.018Z,10.95
2019-03-27T13:23:03.963Z,10.96
2019-03-27T13:25:33.368Z,10.95
2019-03-27T13:28:02.315Z,10.86
2019-03-27T13:30:31.430Z,10.83
2019-03-27T13:33:00.565Z,10.92
2019-03-27T13:35:29.565Z,10.85
2019-03-27T13:37:58.532Z,10.89
2019-03-27T13:40:27.727Z,11.15
2019-03-27T13:42:57.150Z,11.09
2019-03-27T13:45:26.167Z,10.90
2019-03-27T13:47:55.240Z,10.82
2019-03-27T13:50:24.177Z,10.92
2019-03-27T13:52:53.132Z,10.97
2019-03-27T13:55:23.418Z,11.17
2019-03-27T13:57:52.412Z,11.05
2019-03-27T14:00:22.031Z,10.97
2019-03-27T14:02:51.014Z,10.87
2019-03-27T14:05:19.925Z,10.78
2019-03-27T14:07:49.190Z,10.70
2019-03-27T14:10:19.683Z,10.69
2019-03-27T14:12:48.617Z,10.64
2019-03-27T14:15:18.563Z,10.61
2019-03-27T14:17:47.558Z,10.54
2019-03-27T14:20:18.930Z,10.53
2019-03-27T14:22:47.851Z,10.49
2019-03-27T14:25:17.119Z,10.15
2019-03-27T14:27:46.047Z,10.35
2019-03-27T14:30:28.315Z,10.35
2019-03-27T14:32:57.675Z,10.16
2019-03-27T14:35:26.631Z,10.18
2019-03-27T14:37:55.707Z,10.10
2019-03-27T14:40:24.702Z,10.11
2019-03-27T14:42:53.610Z,10.09
2019-03-27T14:45:23.192Z,10.02
2019-03-27T14:47:52.441Z,9.95
2019-03-27T14:50:21.527Z,10.10
2019-03-27T14:52:50.480Z,9.98
2019-03-27T14:55:19.383Z,9.79
2019-03-27T14:57:48.388Z,9.97
2019-03-27T15:00:17.510Z,10.00
2019-03-27T15:02:47.125Z,9.86
2019-03-27T15:05:16.434Z,9.70
2019-03-27T15:07:45.667Z,9.78
2019-03-27T15:10:15.036Z,9.73
2019-03-27T15:12:44.001Z,9.83
2019-03-27T15:15:14.765Z,9.69
2019-03-27T15:17:43.805Z,9.66
2019-03-27T15:20:13.641Z,9.87
2019-03-27T15:22:43.129Z,9.71
2019-03-27T15:25:12.333Z,9.68
2019-03-27T15:27:41.247Z,9.78
2019-03-27T15:30:12.872Z,9.69
2019-03-27T15:32:42.378Z,9.63
2019-03-27T15:35:11.642Z,9.56
2019-03-27T15:37:40.575Z,9.65
2019-03-27T15:40:10.183Z,9.62
2019-03-27T15:42:39.779Z,9.66
2019-03-27T15:45:12.844Z,9.57
2019-03-27T15:47:41.820Z,9.59
2019-03-27T15:50:10.971Z,9.54
2019-03-27T15:52:40.268Z,9.63
2019-03-27T15:55:09.438Z,9.49
2019-03-27T15:57:38.345Z,9.48
2019-03-27T16:00:10.119Z,9.48
2019-03-27T16:02:39.052Z,9.56
2019-03-27T16:05:08.077Z,9.48
2019-03-27T16:07:37.130Z,9.49
2019-03-27T16:10:06.535Z,9.54
2019-03-27T16:12:36.427Z,9.49
2019-03-27T16:15:06.014Z,9.44
2019-03-27T16:17:35.053Z,9.42
2019-03-27T16:20:04.220Z,9.44
2019-03-27T16:22:34.039Z,9.46
2019-03-27T16:25:03.160Z,9.35
2019-03-27T16:27:32.690Z,9.32
2019-03-27T16:30:02.799Z,9.32
2019-03-27T16:32:31.735Z,9.40
2019-03-27T16:35:00.877Z,9.38
2019-03-27T16:37:30.020Z,9.43
2019-03-27T16:39:58.935Z,9.38
2019-03-27T16:42:28.068Z,9.38
2019-03-27T16:44:58.825Z,9.40
2019-03-27T16:47:27.842Z,9.40
2019-03-27T16:49:56.861Z,9.35
2019-03-27T16:52:25.749Z,9.35
2019-03-27T16:54:54.688Z,9.34
2019-03-27T16:57:23.651Z,9.15
2019-03-27T16:59:53.107Z,9.14
2019-03-27T17:02:22.135Z,9.14
2019-03-27T17:04:51.070Z,9.29
2019-03-27T17:07:19.977Z,9.28
2019-03-27T17:09:48.840Z,9.18
2019-03-27T17:12:17.791Z,9.18
2019-03-27T17:14:46.797Z,9.16
2019-03-27T17:17:15.756Z,9.14
2019-03-27T17:19:44.987Z,9.11
2019-03-27T17:22:19.705Z,9.07
2019-03-27T17:24:44.819Z,9.09
2019-03-27T17:27:13.903Z,9.12
2019-03-27T17:29:42.907Z,9.08
2019-03-27T17:32:11.866Z,9.05
2019-03-27T17:34:40.914Z,9.02
2019-03-27T17:37:10.777Z,9.07
2019-03-27T17:39:39.712Z,9.15
2019-03-27T17:42:08.655Z,9.17
2019-03-27T17:44:37.680Z,9.14
2019-03-27T17:47:06.943Z,9.18
2019-03-27T17:49:35.843Z,9.07
2019-03-27T17:52:04.871Z,9.14
2019-03-27T17:54:33.757Z,9.04
2019-03-27T17:57:02.675Z,8.98
2019-03-27T17:59:31.676Z,9.10
2019-03-27T18:02:00.715Z,9.07
2019-03-27T18:04:29.871Z,9.08
2019-03-27T18:06:58.818Z,9.07
2019-03-27T18:09:27.728Z,9.05
2019-03-27T18:11:56.655Z,8.99
2019-03-27T18:14:25.774Z,9.06
2019-03-27T18:16:54.772Z,9.14
2019-03-27T18:19:23.842Z,9.03
2019-03-27T18:22:06.780Z,9.01
2019-03-27T18:24:24.000Z,9.13
2019-03-27T18:26:52.979Z,9.07
2019-03-27T18:29:21.966Z,9.14
2019-03-27T18:31:50.899Z,9.12
2019-03-27T18:34:20.029Z,9.04
2019-03-27T18:36:49.067Z,9.04
2019-03-27T18:39:18.176Z,9.06
2019-03-27T18:41:47.212Z,9.00
2019-03-27T18:44:16.248Z,9.04
2019-03-27T18:46:45.317Z,8.98
2019-03-27T18:49:14.253Z,9.00
2019-03-27T18:51:43.154Z,9.02
2019-03-27T18:54:12.540Z,9.04
2019-03-27T18:56:41.421Z,9.04
2019-03-27T18:59:10.388Z,8.91
2019-03-27T19:01:39.279Z,8.95
2019-03-27T19:04:08.200Z,8.94
2019-03-27T19:06:37.194Z,9.02
2019-03-27T19:09:08.040Z,9.01
2019-03-27T19:11:36.963Z,9.00
2019-03-27T19:14:06.104Z,9.02
2019-03-27T19:16:35.054Z,8.88
2019-03-27T19:19:04.110Z,8.99
2019-03-27T19:21:33.090Z,8.96
2019-03-27T19:24:13.528Z,8.90
2019-03-27T19:26:34.268Z,8.84
2019-03-27T19:29:03.277Z,8.88
2019-03-27T19:31:32.307Z,8.90
2019-03-27T19:34:01.401Z,8.95
2019-03-27T19:36:30.364Z,8.95
2019-03-27T19:38:59.304Z,9.03
2019-03-27T19:41:28.742Z,8.92
2019-03-27T19:43:58.403Z,8.95
2019-03-27T19:46:27.422Z,8.90
2019-03-27T19:48:56.963Z,8.86
2019-03-27T19:51:25.919Z,8.81
2019-03-27T19:53:55.023Z,8.88
2019-03-27T19:56:24.041Z,8.81
2019-03-27T19:58:53.098Z,8.77
2019-03-27T20:01:21.999Z,8.80
2019-03-27T20:03:51.066Z,8.87
2019-03-27T20:06:20.323Z,8.83
2019-03-27T20:10:02.526Z,8.90
2019-03-27T20:12:31.453Z,8.93
2019-03-27T20:15:11.757Z,8.93
2019-03-27T20:17:33.052Z,8.87
2019-03-27T20:20:02.295Z,8.75
2019-03-27T20:22:31.203Z,8.73
2019-03-27T20:25:00.174Z,8.71
2019-03-27T20:27:29.686Z,8.69
2019-03-27T20:29:58.679Z,8.84
2019-03-27T20:32:27.597Z,8.81
2019-03-27T20:34:56.658Z,8.68
2019-03-27T20:37:25.546Z,8.72
2019-03-27T20:39:54.465Z,8.78
2019-03-27T20:42:23.434Z,8.86
2019-03-27T20:44:52.367Z,8.79
2019-03-27T20:47:21.454Z,8.87
2019-03-27T20:49:50.811Z,8.77
2019-03-27T20:52:20.098Z,8.72
2019-03-27T20:54:55.044Z,8.73
2019-03-27T20:57:19.974Z,8.68
2019-03-27T20:59:49.294Z,8.76
2019-03-27T21:02:20.329Z,8.75
2019-03-27T21:04:49.193Z,8.82
2019-03-27T21:07:18.325Z,8.78
2019-03-27T21:09:47.779Z,8.79
2019-03-27T21:12:16.653Z,8.78
2019-03-27T21:14:45.583Z,8.80
2019-03-27T21:17:14.580Z,8.72
2019-03-27T21:19:46.965Z,8.75
2019-03-27T21:22:15.879Z,8.70
2019-03-27T21:24:45.019Z,8.73
2019-03-27T21:27:16.763Z,8.77
2019-03-27T21:29:44.955Z,8.71
2019-03-27T21:32:13.826Z,8.68
2019-03-27T21:34:42.861Z,8.50
2019-03-27T21:37:11.951Z,8.57
2019-03-27T21:39:41.187Z,8.70
2019-03-27T21:42:10.152Z,8.64
2019-03-27T21:44:39.353Z,8.59
2019-03-27T21:47:08.392Z,8.63
2019-03-27T21:49:37.355Z,8.68
2019-03-27T21:52:06.297Z,8.72
2019-03-27T21:54:35.286Z,8.64
2019-03-27T21:57:04.219Z,8.65
2019-03-27T21:59:33.191Z,8.52
2019-03-27T22:02:03.025Z,8.60
2019-03-27T22:04:32.830Z,8.70
2019-03-27T22:07:01.745Z,8.69
2019-03-27T22:09:30.772Z,8.66
2019-03-27T22:11:59.705Z,8.57
2019-03-27T22:14:28.667Z,8.57
2019-03-27T22:16:57.648Z,8.67
2019-03-27T22:19:27.113Z,8.64
2019-03-27T22:21:56.055Z,8.59
2019-03-27T22:24:24.956Z,8.51
2019-03-27T22:26:53.911Z,8.52
2019-03-27T22:29:22.939Z,8.59
2019-03-27T22:31:52.150Z,8.65
2019-03-27T22:34:21.311Z,8.52
2019-03-27T22:36:50.277Z,8.57
2019-03-27T22:39:19.336Z,8.44
2019-03-27T22:41:48.315Z,8.54
2019-03-27T22:44:17.605Z,8.53
2019-03-27T22:46:46.628Z,8.49
2019-03-27T22:49:15.555Z,8.46
2019-03-27T22:51:44.510Z,8.54
2019-03-27T22:54:13.696Z,8.54
2019-03-27T22:56:42.637Z,8.57
2019-03-27T22:59:11.744Z,8.56
2019-03-27T23:01:45.143Z,8.47
2019-03-27T23:04:14.282Z,8.48
2019-03-27T23:06:43.213Z,8.45
2019-03-27T23:09:12.141Z,8.41
2019-03-27T23:11:41.046Z,8.51
2019-03-27T23:14:10.084Z,8.39
2019-03-27T23:16:39.108Z,8.29
2019-03-27T23:19:08.329Z,8.33
2019-03-27T23:21:37.325Z,8.43
2019-03-27T23:24:06.366Z,8.32
2019-03-27T23:26:35.341Z,8.37
2019-03-27T23:29:04.432Z,8.29
2019-03-27T23:31:33.425Z,8.39
2019-03-27T23:34:02.676Z,8.32
2019-03-27T23:36:31.729Z,8.29
2019-03-27T23:39:00.666Z,8.39
2019-03-27T23:41:29.665Z,8.37
2019-03-27T23:43:58.582Z,8.36
2019-03-27T23:46:27.608Z,8.26
2019-03-27T23:48:56.646Z,8.27
2019-03-27T23:51:25.604Z,8.20
2019-03-27T23:53:54.608Z,8.17
2019-03-27T23:56:23.669Z,8.09
2019-03-27T23:58:53.085Z,8.22
